Terminal Aerodrome Forecast
Issued by NWS Cleveland, OH

Home | Current Version | Previous Version | Text Only | Print | Product List | Glossary On
Versions: 1 2 3 4 5 6 7 8 9 10 11 12 13 14 15 16 17 18 19 20
000
FTUS41 KCLE 060500
TAFYNG
TAF
KYNG 060538Z 0606/0706 01004KT 1SM BR VCSH BKN050 OVC120
      TEMPO 0606/0607 3SM -SHRA BR
     FM060900 04004KT 1SM BR OVC006
      TEMPO 0609/0612 VRB03KT 1/2SM FG OVC002
     FM061300 VRB05KT 4SM BR BKN005
     FM061600 32006KT 6SM HZ BKN012 BKN250
     FM061800 VRB06KT P6SM SCT020 BKN250=

USA.gov is the U.S. government's official web portal to all federal, state and local government web resources and services.